sensor_id;sensor_type;location;lat;lon;timestamp;P1;durP1;ratioP1;P2;durP2;ratioP2
819;SDS011;392;48.838;2.322;2023-03-20T00:01:15;5.67;;;5.17;;
819;SDS011;392;48.838;2.322;2023-03-20T00:03:45;6.67;;;5.97;;
819;SDS011;392;48.838;2.322;2023-03-20T00:06:15;4.90;;;4.50;;
819;SDS011;392;48.838;2.322;2023-03-20T00:08:44;7.83;;;5.60;;
819;SDS011;392;48.838;2.322;2023-03-20T00:11:21;8.47;;;5.30;;
819;SDS011;392;48.838;2.322;2023-03-20T00:13:54;6.57;;;5.97;;
819;SDS011;392;48.838;2.322;2023-03-20T00:16:26;5.63;;;5.23;;
819;SDS011;392;48.838;2.322;2023-03-20T00:18:57;5.53;;;5.13;;
819;SDS011;392;48.838;2.322;2023-03-20T00:21:25;5.20;;;4.80;;
819;SDS011;392;48.838;2.322;2023-03-20T00:23:53;7.53;;;5.80;;
819;SDS011;392;48.838;2.322;2023-03-20T00:26:21;6.57;;;5.90;;
819;SDS011;392;48.838;2.322;2023-03-20T00:28:52;6.33;;;5.77;;
819;SDS011;392;48.838;2.322;2023-03-20T00:31:22;7.40;;;6.57;;
819;SDS011;392;48.838;2.322;2023-03-20T00:33:52;6.43;;;5.70;;
819;SDS011;392;48.838;2.322;2023-03-20T00:36:21;7.10;;;6.40;;
819;SDS011;392;48.838;2.322;2023-03-20T00:38:51;7.33;;;5.80;;
819;SDS011;392;48.838;2.322;2023-03-20T00:41:22;7.20;;;6.17;;
819;SDS011;392;48.838;2.322;2023-03-20T00:43:54;8.33;;;6.43;;
819;SDS011;392;48.838;2.322;2023-03-20T00:46:25;6.27;;;5.77;;
819;SDS011;392;48.838;2.322;2023-03-20T00:48:53;6.80;;;6.20;;
819;SDS011;392;48.838;2.322;2023-03-20T00:51:21;6.33;;;5.77;;
819;SDS011;392;48.838;2.322;2023-03-20T00:53:51;7.73;;;6.07;;
819;SDS011;392;48.838;2.322;2023-03-20T00:56:29;6.40;;;5.80;;
819;SDS011;392;48.838;2.322;2023-03-20T00:58:59;7.20;;;6.50;;
819;SDS011;392;48.838;2.322;2023-03-20T01:01:27;6.27;;;5.80;;
819;SDS011;392;48.838;2.322;2023-03-20T01:03:55;6.90;;;5.90;;
819;SDS011;392;48.838;2.322;2023-03-20T01:06:23;7.47;;;6.10;;
819;SDS011;392;48.838;2.322;2023-03-20T01:08:52;6.30;;;5.73;;
819;SDS011;392;48.838;2.322;2023-03-20T01:11:24;6.90;;;6.20;;
819;SDS011;392;48.838;2.322;2023-03-20T01:13:51;6.93;;;6.30;;
819;SDS011;392;48.838;2.322;2023-03-20T01:16:20;7.17;;;6.50;;
819;SDS011;392;48.838;2.322;2023-03-20T01:18:49;6.87;;;6.23;;
819;SDS011;392;48.838;2.322;2023-03-20T01:21:17;7.10;;;6.50;;
819;SDS011;392;48.838;2.322;2023-03-20T01:23:46;5.90;;;5.30;;
819;SDS011;392;48.838;2.322;2023-03-20T01:26:19;5.30;;;4.83;;
819;SDS011;392;48.838;2.322;2023-03-20T01:28:53;6.33;;;5.87;;
819;SDS011;392;48.838;2.322;2023-03-20T01:31:20;6.57;;;5.40;;
819;SDS011;392;48.838;2.322;2023-03-20T01:33:47;5.70;;;5.30;;
819;SDS011;392;48.838;2.322;2023-03-20T01:36:16;5.43;;;5.03;;
819;SDS011;392;48.838;2.322;2023-03-20T01:38:48;6.37;;;5.73;;
819;SDS011;392;48.838;2.322;2023-03-20T01:41:23;6.43;;;5.93;;
819;SDS011;392;48.838;2.322;2023-03-20T01:43:52;5.77;;;5.37;;
819;SDS011;392;48.838;2.322;2023-03-20T01:46:22;6.40;;;5.80;;
819;SDS011;392;48.838;2.322;2023-03-20T01:48:59;6.73;;;6.07;;
819;SDS011;392;48.838;2.322;2023-03-20T01:51:35;6.30;;;5.80;;
819;SDS011;392;48.838;2.322;2023-03-20T01:54:09;7.70;;;5.67;;
819;SDS011;392;48.838;2.322;2023-03-20T01:56:53;6.03;;;5.50;;
819;SDS011;392;48.838;2.322;2023-03-20T01:59:26;6.10;;;5.50;;
819;SDS011;392;48.838;2.322;2023-03-20T02:01:57;6.63;;;6.13;;
819;SDS011;392;48.838;2.322;2023-03-20T02:04:26;6.07;;;5.53;;
819;SDS011;392;48.838;2.322;2023-03-20T02:07:05;9.77;;;5.97;;
819;SDS011;392;48.838;2.322;2023-03-20T02:09:45;6.47;;;5.87;;
819;SDS011;392;48.838;2.322;2023-03-20T02:12:22;7.00;;;5.63;;
819;SDS011;392;48.838;2.322;2023-03-20T02:14:50;5.93;;;5.43;;
819;SDS011;392;48.838;2.322;2023-03-20T02:17:38;5.67;;;5.17;;
819;SDS011;392;48.838;2.322;2023-03-20T02:20:10;5.50;;;5.10;;
819;SDS011;392;48.838;2.322;2023-03-20T02:26:02;5.60;;;5.07;;
819;SDS011;392;48.838;2.322;2023-03-20T02:29:03;5.80;;;5.30;;
819;SDS011;392;48.838;2.322;2023-03-20T02:35:23;6.07;;;5.50;;
819;SDS011;392;48.838;2.322;2023-03-20T02:38:34;6.00;;;5.27;;
819;SDS011;392;48.838;2.322;2023-03-20T02:41:18;7.17;;;5.27;;
819;SDS011;392;48.838;2.322;2023-03-20T02:43:54;5.80;;;5.30;;
819;SDS011;392;48.838;2.322;2023-03-20T02:46:30;6.13;;;5.07;;
819;SDS011;392;48.838;2.322;2023-03-20T02:49:15;5.60;;;5.10;;
819;SDS011;392;48.838;2.322;2023-03-20T02:51:58;5.73;;;5.13;;
819;SDS011;392;48.838;2.322;2023-03-20T02:54:32;6.60;;;6.00;;
819;SDS011;392;48.838;2.322;2023-03-20T02:57:08;7.10;;;6.47;;
819;SDS011;392;48.838;2.322;2023-03-20T02:59:46;6.87;;;6.17;;
819;SDS011;392;48.838;2.322;2023-03-20T03:02:22;8.83;;;8.10;;
819;SDS011;392;48.838;2.322;2023-03-20T03:04:57;10.47;;;9.47;;
819;SDS011;392;48.838;2.322;2023-03-20T03:07:29;11.03;;;8.43;;
819;SDS011;392;48.838;2.322;2023-03-20T03:10:00;9.80;;;8.90;;
819;SDS011;392;48.838;2.322;2023-03-20T03:12:33;8.23;;;7.47;;
819;SDS011;392;48.838;2.322;2023-03-20T03:15:05;8.57;;;7.87;;
819;SDS011;392;48.838;2.322;2023-03-20T03:17:39;7.93;;;7.23;;
819;SDS011;392;48.838;2.322;2023-03-20T03:20:13;8.40;;;7.63;;
819;SDS011;392;48.838;2.322;2023-03-20T03:22:48;10.30;;;7.33;;
819;SDS011;392;48.838;2.322;2023-03-20T03:25:17;8.00;;;7.30;;
819;SDS011;392;48.838;2.322;2023-03-20T03:27:48;8.50;;;7.80;;
819;SDS011;392;48.838;2.322;2023-03-20T03:30:23;8.33;;;7.53;;
819;SDS011;392;48.838;2.322;2023-03-20T03:32:58;8.30;;;7.60;;
819;SDS011;392;48.838;2.322;2023-03-20T03:35:38;8.20;;;7.50;;
819;SDS011;392;48.838;2.322;2023-03-20T03:38:09;10.73;;;8.07;;
819;SDS011;392;48.838;2.322;2023-03-20T03:40:56;8.13;;;7.30;;
819;SDS011;392;48.838;2.322;2023-03-20T03:43:37;7.97;;;7.27;;
819;SDS011;392;48.838;2.322;2023-03-20T03:46:11;8.47;;;7.77;;
819;SDS011;392;48.838;2.322;2023-03-20T03:48:44;10.27;;;8.77;;
819;SDS011;392;48.838;2.322;2023-03-20T03:51:16;8.87;;;7.97;;
819;SDS011;392;48.838;2.322;2023-03-20T03:54:00;7.60;;;6.90;;
819;SDS011;392;48.838;2.322;2023-03-20T03:56:32;7.20;;;6.70;;
819;SDS011;392;48.838;2.322;2023-03-20T03:59:03;6.70;;;6.10;;
819;SDS011;392;48.838;2.322;2023-03-20T04:01:37;8.13;;;6.67;;
819;SDS011;392;48.838;2.322;2023-03-20T04:04:09;7.53;;;6.90;;
819;SDS011;392;48.838;2.322;2023-03-20T04:06:39;7.50;;;6.30;;
819;SDS011;392;48.838;2.322;2023-03-20T04:09:06;7.20;;;6.50;;
819;SDS011;392;48.838;2.322;2023-03-20T04:11:36;6.70;;;6.03;;
819;SDS011;392;48.838;2.322;2023-03-20T04:14:03;6.90;;;6.30;;
819;SDS011;392;48.838;2.322;2023-03-20T04:16:30;8.50;;;5.70;;
819;SDS011;392;48.838;2.322;2023-03-20T04:18:58;5.47;;;4.90;;
819;SDS011;392;48.838;2.322;2023-03-20T04:21:25;5.80;;;5.30;;
819;SDS011;392;48.838;2.322;2023-03-20T04:23:53;6.17;;;5.57;;
819;SDS011;392;48.838;2.322;2023-03-20T04:26:21;6.30;;;5.80;;
819;SDS011;392;48.838;2.322;2023-03-20T04:28:50;6.17;;;5.57;;
819;SDS011;392;48.838;2.322;2023-03-20T04:31:36;7.40;;;5.80;;
819;SDS011;392;48.838;2.322;2023-03-20T04:34:09;7.77;;;6.10;;
819;SDS011;392;48.838;2.322;2023-03-20T04:36:55;6.53;;;5.80;;
819;SDS011;392;48.838;2.322;2023-03-20T04:39:30;5.00;;;4.70;;
819;SDS011;392;48.838;2.322;2023-03-20T04:41:57;5.70;;;5.20;;
819;SDS011;392;48.838;2.322;2023-03-20T04:44:27;5.30;;;4.90;;
819;SDS011;392;48.838;2.322;2023-03-20T04:46:54;5.27;;;4.97;;
819;SDS011;392;48.838;2.322;2023-03-20T04:49:21;5.13;;;4.77;;
819;SDS011;392;48.838;2.322;2023-03-20T04:51:49;6.30;;;5.30;;
819;SDS011;392;48.838;2.322;2023-03-20T04:54:26;5.40;;;4.90;;
819;SDS011;392;48.838;2.322;2023-03-20T04:56:53;6.87;;;5.00;;
819;SDS011;392;48.838;2.322;2023-03-20T04:59:22;6.27;;;5.00;;
819;SDS011;392;48.838;2.322;2023-03-20T05:01:51;5.13;;;4.73;;
819;SDS011;392;48.838;2.322;2023-03-20T05:04:20;5.70;;;5.17;;
819;SDS011;392;48.838;2.322;2023-03-20T05:06:48;4.90;;;4.50;;
819;SDS011;392;48.838;2.322;2023-03-20T05:09:19;5.27;;;4.77;;
819;SDS011;392;48.838;2.322;2023-03-20T05:11:48;5.70;;;5.20;;
819;SDS011;392;48.838;2.322;2023-03-20T05:14:35;6.17;;;4.87;;
819;SDS011;392;48.838;2.322;2023-03-20T05:17:17;5.57;;;5.03;;
819;SDS011;392;48.838;2.322;2023-03-20T05:20:17;6.93;;;4.80;;
819;SDS011;392;48.838;2.322;2023-03-20T05:22:53;7.00;;;5.43;;
819;SDS011;392;48.838;2.322;2023-03-20T05:25:39;5.43;;;4.93;;
819;SDS011;392;48.838;2.322;2023-03-20T05:28:45;8.80;;;5.37;;
819;SDS011;392;48.838;2.322;2023-03-20T05:31:12;6.47;;;4.77;;
819;SDS011;392;48.838;2.322;2023-03-20T05:33:59;6.77;;;5.47;;
819;SDS011;392;48.838;2.322;2023-03-20T05:36:41;6.60;;;5.40;;
819;SDS011;392;48.838;2.322;2023-03-20T05:39:27;5.60;;;5.10;;
819;SDS011;392;48.838;2.322;2023-03-20T05:42:13;8.73;;;5.40;;
819;SDS011;392;48.838;2.322;2023-03-20T05:45:00;5.20;;;4.80;;
819;SDS011;392;48.838;2.322;2023-03-20T05:47:47;7.20;;;5.10;;
819;SDS011;392;48.838;2.322;2023-03-20T05:50:41;6.77;;;5.00;;
819;SDS011;392;48.838;2.322;2023-03-20T05:53:18;5.27;;;4.77;;
819;SDS011;392;48.838;2.322;2023-03-20T05:56:06;5.83;;;4.83;;
819;SDS011;392;48.838;2.322;2023-03-20T05:58:53;5.37;;;4.87;;
819;SDS011;392;48.838;2.322;2023-03-20T06:01:52;5.67;;;5.17;;
819;SDS011;392;48.838;2.322;2023-03-20T06:04:27;6.13;;;4.80;;
819;SDS011;392;48.838;2.322;2023-03-20T06:07:17;5.27;;;4.87;;
819;SDS011;392;48.838;2.322;2023-03-20T06:09:54;5.37;;;4.87;;
819;SDS011;392;48.838;2.322;2023-03-20T06:12:22;7.13;;;5.23;;
819;SDS011;392;48.838;2.322;2023-03-20T06:14:49;6.40;;;4.87;;
819;SDS011;392;48.838;2.322;2023-03-20T06:17:17;4.93;;;4.53;;
819;SDS011;392;48.838;2.322;2023-03-20T06:19:49;5.97;;;5.00;;
819;SDS011;392;48.838;2.322;2023-03-20T06:22:18;4.70;;;4.30;;
819;SDS011;392;48.838;2.322;2023-03-20T06:24:45;7.30;;;5.33;;
819;SDS011;392;48.838;2.322;2023-03-20T06:27:14;5.13;;;4.83;;
819;SDS011;392;48.838;2.322;2023-03-20T06:29:44;5.17;;;4.20;;
819;SDS011;392;48.838;2.322;2023-03-20T06:32:16;5.10;;;4.33;;
819;SDS011;392;48.838;2.322;2023-03-20T06:34:47;4.97;;;4.53;;
819;SDS011;392;48.838;2.322;2023-03-20T06:37:15;4.43;;;4.13;;
819;SDS011;392;48.838;2.322;2023-03-20T06:39:43;4.00;;;3.70;;
819;SDS011;392;48.838;2.322;2023-03-20T06:42:12;4.00;;;3.70;;
819;SDS011;392;48.838;2.322;2023-03-20T06:44:40;4.27;;;3.97;;
819;SDS011;392;48.838;2.322;2023-03-20T06:47:12;3.47;;;3.23;;
819;SDS011;392;48.838;2.322;2023-03-20T06:49:40;3.80;;;3.50;;
819;SDS011;392;48.838;2.322;2023-03-20T06:52:09;3.60;;;3.30;;
819;SDS011;392;48.838;2.322;2023-03-20T06:54:44;4.20;;;3.90;;
819;SDS011;392;48.838;2.322;2023-03-20T06:57:13;4.43;;;3.93;;
819;SDS011;392;48.838;2.322;2023-03-20T06:59:42;4.73;;;4.33;;
819;SDS011;392;48.838;2.322;2023-03-20T07:02:10;6.07;;;4.37;;
819;SDS011;392;48.838;2.322;2023-03-20T07:04:38;4.33;;;3.93;;
819;SDS011;392;48.838;2.322;2023-03-20T07:07:06;4.60;;;3.90;;
819;SDS011;392;48.838;2.322;2023-03-20T07:09:34;3.43;;;3.23;;
819;SDS011;392;48.838;2.322;2023-03-20T07:12:04;4.17;;;3.50;;
819;SDS011;392;48.838;2.322;2023-03-20T07:14:34;5.40;;;4.90;;
819;SDS011;392;48.838;2.322;2023-03-20T07:17:05;4.40;;;4.00;;
819;SDS011;392;48.838;2.322;2023-03-20T07:19:34;4.43;;;4.13;;
819;SDS011;392;48.838;2.322;2023-03-20T07:22:03;6.07;;;4.30;;
819;SDS011;392;48.838;2.322;2023-03-20T07:24:37;4.30;;;3.90;;
819;SDS011;392;48.838;2.322;2023-03-20T07:27:07;3.80;;;3.50;;
819;SDS011;392;48.838;2.322;2023-03-20T07:29:34;4.57;;;4.27;;
819;SDS011;392;48.838;2.322;2023-03-20T07:32:09;4.43;;;4.03;;
819;SDS011;392;48.838;2.322;2023-03-20T07:34:41;4.10;;;3.80;;
819;SDS011;392;48.838;2.322;2023-03-20T07:37:09;6.13;;;4.67;;
819;SDS011;392;48.838;2.322;2023-03-20T07:39:37;4.23;;;4.03;;
819;SDS011;392;48.838;2.322;2023-03-20T07:42:32;6.20;;;4.50;;
819;SDS011;392;48.838;2.322;2023-03-20T07:45:11;5.90;;;4.20;;
819;SDS011;392;48.838;2.322;2023-03-20T07:47:43;4.47;;;3.90;;
819;SDS011;392;48.838;2.322;2023-03-20T07:50:12;4.40;;;4.10;;
819;SDS011;392;48.838;2.322;2023-03-20T07:52:44;6.37;;;4.10;;
819;SDS011;392;48.838;2.322;2023-03-20T07:55:12;5.27;;;4.77;;
819;SDS011;392;48.838;2.322;2023-03-20T07:57:43;4.07;;;3.73;;
819;SDS011;392;48.838;2.322;2023-03-20T08:00:11;4.40;;;4.00;;
819;SDS011;392;48.838;2.322;2023-03-20T08:02:40;4.63;;;4.23;;
819;SDS011;392;48.838;2.322;2023-03-20T08:05:08;4.47;;;3.73;;
819;SDS011;392;48.838;2.322;2023-03-20T08:07:36;5.50;;;4.00;;
819;SDS011;392;48.838;2.322;2023-03-20T08:10:04;4.93;;;3.90;;
819;SDS011;392;48.838;2.322;2023-03-20T08:12:32;5.40;;;4.53;;
819;SDS011;392;48.838;2.322;2023-03-20T08:15:00;5.30;;;4.40;;
819;SDS011;392;48.838;2.322;2023-03-20T08:17:28;5.10;;;4.60;;
819;SDS011;392;48.838;2.322;2023-03-20T08:19:55;4.93;;;4.63;;
819;SDS011;392;48.838;2.322;2023-03-20T08:22:22;5.60;;;4.43;;
819;SDS011;392;48.838;2.322;2023-03-20T08:24:50;4.60;;;4.20;;
819;SDS011;392;48.838;2.322;2023-03-20T08:27:17;6.03;;;3.80;;
819;SDS011;392;48.838;2.322;2023-03-20T08:29:45;4.10;;;3.80;;
819;SDS011;392;48.838;2.322;2023-03-20T08:32:13;5.93;;;4.13;;
819;SDS011;392;48.838;2.322;2023-03-20T08:34:41;6.33;;;4.00;;
819;SDS011;392;48.838;2.322;2023-03-20T08:37:08;4.07;;;3.77;;
819;SDS011;392;48.838;2.322;2023-03-20T08:39:36;6.73;;;4.37;;
819;SDS011;392;48.838;2.322;2023-03-20T08:42:04;4.63;;;4.23;;
819;SDS011;392;48.838;2.322;2023-03-20T08:44:32;6.03;;;4.60;;
819;SDS011;392;48.838;2.322;2023-03-20T08:47:00;7.10;;;4.60;;
819;SDS011;392;48.838;2.322;2023-03-20T08:49:29;6.20;;;4.50;;
819;SDS011;392;48.838;2.322;2023-03-20T08:51:56;5.77;;;4.10;;
819;SDS011;392;48.838;2.322;2023-03-20T08:54:23;4.40;;;3.80;;
819;SDS011;392;48.838;2.322;2023-03-20T08:56:51;3.40;;;3.10;;
819;SDS011;392;48.838;2.322;2023-03-20T08:59:18;3.10;;;2.90;;
819;SDS011;392;48.838;2.322;2023-03-20T09:01:46;4.93;;;3.43;;
819;SDS011;392;48.838;2.322;2023-03-20T09:04:13;6.33;;;3.10;;
819;SDS011;392;48.838;2.322;2023-03-20T09:06:42;2.73;;;2.53;;
819;SDS011;392;48.838;2.322;2023-03-20T09:09:09;3.60;;;3.20;;
819;SDS011;392;48.838;2.322;2023-03-20T09:11:40;20.20;;;14.03;;
819;SDS011;392;48.838;2.322;2023-03-20T09:14:07;4.90;;;3.33;;
819;SDS011;392;48.838;2.322;2023-03-20T09:16:35;3.57;;;3.30;;
819;SDS011;392;48.838;2.322;2023-03-20T09:19:02;3.03;;;2.80;;
819;SDS011;392;48.838;2.322;2023-03-20T09:21:30;4.27;;;2.93;;
819;SDS011;392;48.838;2.322;2023-03-20T09:23:59;4.30;;;3.90;;
819;SDS011;392;48.838;2.322;2023-03-20T09:26:26;3.73;;;2.83;;
819;SDS011;392;48.838;2.322;2023-03-20T09:28:54;5.30;;;3.07;;
819;SDS011;392;48.838;2.322;2023-03-20T09:31:21;5.77;;;3.67;;
819;SDS011;392;48.838;2.322;2023-03-20T09:33:48;5.10;;;3.60;;
819;SDS011;392;48.838;2.322;2023-03-20T09:36:16;3.67;;;2.63;;
819;SDS011;392;48.838;2.322;2023-03-20T09:38:43;4.80;;;2.80;;
819;SDS011;392;48.838;2.322;2023-03-20T09:41:13;4.90;;;3.00;;
819;SDS011;392;48.838;2.322;2023-03-20T09:43:49;4.33;;;2.60;;
819;SDS011;392;48.838;2.322;2023-03-20T09:46:40;3.03;;;2.60;;
819;SDS011;392;48.838;2.322;2023-03-20T09:49:36;4.17;;;2.50;;
819;SDS011;392;48.838;2.322;2023-03-20T09:52:15;3.50;;;2.37;;
819;SDS011;392;48.838;2.322;2023-03-20T09:54:48;4.43;;;2.70;;
819;SDS011;392;48.838;2.322;2023-03-20T09:57:21;2.80;;;2.60;;
819;SDS011;392;48.838;2.322;2023-03-20T09:59:53;3.00;;;2.80;;
819;SDS011;392;48.838;2.322;2023-03-20T10:02:27;6.23;;;2.87;;
819;SDS011;392;48.838;2.322;2023-03-20T10:05:03;5.33;;;2.97;;
819;SDS011;392;48.838;2.322;2023-03-20T10:07:42;4.60;;;2.40;;
819;SDS011;392;48.838;2.322;2023-03-20T10:10:11;4.00;;;3.40;;
819;SDS011;392;48.838;2.322;2023-03-20T10:12:44;4.20;;;3.07;;
819;SDS011;392;48.838;2.322;2023-03-20T10:15:25;6.57;;;4.03;;
819;SDS011;392;48.838;2.322;2023-03-20T10:18:05;4.67;;;3.80;;
819;SDS011;392;48.838;2.322;2023-03-20T10:20:45;4.47;;;2.93;;
819;SDS011;392;48.838;2.322;2023-03-20T10:23:23;2.77;;;2.53;;
819;SDS011;392;48.838;2.322;2023-03-20T10:26:02;4.23;;;2.93;;
819;SDS011;392;48.838;2.322;2023-03-20T10:28:39;3.97;;;3.47;;
819;SDS011;392;48.838;2.322;2023-03-20T10:31:17;3.70;;;3.33;;
819;SDS011;392;48.838;2.322;2023-03-20T10:33:57;6.33;;;3.43;;
819;SDS011;392;48.838;2.322;2023-03-20T10:36:45;5.20;;;3.60;;
819;SDS011;392;48.838;2.322;2023-03-20T10:39:27;3.03;;;2.67;;
819;SDS011;392;48.838;2.322;2023-03-20T10:42:15;3.80;;;2.33;;
819;SDS011;392;48.838;2.322;2023-03-20T10:44:50;4.93;;;2.90;;
819;SDS011;392;48.838;2.322;2023-03-20T10:47:23;2.90;;;2.77;;
819;SDS011;392;48.838;2.322;2023-03-20T10:49:56;3.80;;;2.70;;
819;SDS011;392;48.838;2.322;2023-03-20T10:52:28;5.30;;;3.03;;
819;SDS011;392;48.838;2.322;2023-03-20T10:54:59;3.00;;;2.80;;
819;SDS011;392;48.838;2.322;2023-03-20T10:57:32;3.67;;;3.07;;
819;SDS011;392;48.838;2.322;2023-03-20T11:00:12;4.30;;;3.60;;
819;SDS011;392;48.838;2.322;2023-03-20T11:02:44;4.00;;;3.50;;
819;SDS011;392;48.838;2.322;2023-03-20T11:05:19;4.00;;;3.63;;
819;SDS011;392;48.838;2.322;2023-03-20T11:07:51;3.83;;;3.43;;
819;SDS011;392;48.838;2.322;2023-03-20T11:10:30;3.73;;;3.43;;
819;SDS011;392;48.838;2.322;2023-03-20T11:13:02;3.50;;;3.20;;
819;SDS011;392;48.838;2.322;2023-03-20T11:15:44;4.83;;;3.50;;
819;SDS011;392;48.838;2.322;2023-03-20T11:18:12;3.20;;;3.00;;
819;SDS011;392;48.838;2.322;2023-03-20T11:20:43;3.30;;;3.00;;
819;SDS011;392;48.838;2.322;2023-03-20T11:23:15;3.63;;;3.33;;
819;SDS011;392;48.838;2.322;2023-03-20T11:25:46;3.80;;;3.50;;
819;SDS011;392;48.838;2.322;2023-03-20T11:28:18;5.20;;;4.73;;
819;SDS011;392;48.838;2.322;2023-03-20T11:30:57;3.77;;;3.47;;
819;SDS011;392;48.838;2.322;2023-03-20T11:33:27;3.93;;;3.63;;
819;SDS011;392;48.838;2.322;2023-03-20T11:35:55;4.20;;;3.80;;
819;SDS011;392;48.838;2.322;2023-03-20T11:38:24;7.33;;;4.33;;
819;SDS011;392;48.838;2.322;2023-03-20T11:40:55;4.57;;;3.83;;
819;SDS011;392;48.838;2.322;2023-03-20T11:43:23;4.07;;;3.77;;
819;SDS011;392;48.838;2.322;2023-03-20T11:45:53;5.17;;;4.87;;
819;SDS011;392;48.838;2.322;2023-03-20T11:48:25;4.73;;;3.93;;
819;SDS011;392;48.838;2.322;2023-03-20T11:51:03;4.80;;;4.40;;
819;SDS011;392;48.838;2.322;2023-03-20T11:53:33;4.73;;;4.33;;
819;SDS011;392;48.838;2.322;2023-03-20T11:56:04;5.70;;;4.93;;
819;SDS011;392;48.838;2.322;2023-03-20T11:58:36;6.00;;;4.90;;
819;SDS011;392;48.838;2.322;2023-03-20T12:01:15;7.13;;;4.03;;
819;SDS011;392;48.838;2.322;2023-03-20T12:03:43;3.30;;;3.00;;
819;SDS011;392;48.838;2.322;2023-03-20T12:06:20;5.47;;;3.53;;
819;SDS011;392;48.838;2.322;2023-03-20T12:08:52;4.77;;;3.70;;
819;SDS011;392;48.838;2.322;2023-03-20T12:11:30;6.50;;;5.93;;
819;SDS011;392;48.838;2.322;2023-03-20T12:14:11;5.80;;;3.90;;
819;SDS011;392;48.838;2.322;2023-03-20T12:16:51;6.03;;;4.10;;
819;SDS011;392;48.838;2.322;2023-03-20T12:19:31;5.97;;;5.37;;
819;SDS011;392;48.838;2.322;2023-03-20T12:22:01;8.83;;;6.90;;
819;SDS011;392;48.838;2.322;2023-03-20T12:24:35;4.53;;;3.60;;
819;SDS011;392;48.838;2.322;2023-03-20T12:27:13;5.50;;;3.80;;
819;SDS011;392;48.838;2.322;2023-03-20T12:29:47;6.27;;;3.53;;
819;SDS011;392;48.838;2.322;2023-03-20T12:32:20;6.10;;;4.13;;
819;SDS011;392;48.838;2.322;2023-03-20T12:34:53;3.40;;;3.20;;
819;SDS011;392;48.838;2.322;2023-03-20T12:37:24;6.30;;;3.73;;
819;SDS011;392;48.838;2.322;2023-03-20T12:39:52;4.10;;;3.40;;
819;SDS011;392;48.838;2.322;2023-03-20T12:42:26;3.60;;;3.23;;
819;SDS011;392;48.838;2.322;2023-03-20T12:45:07;4.30;;;3.80;;
819;SDS011;392;48.838;2.322;2023-03-20T12:47:50;3.90;;;3.60;;
819;SDS011;392;48.838;2.322;2023-03-20T12:50:30;4.57;;;4.17;;
819;SDS011;392;48.838;2.322;2023-03-20T12:53:10;4.43;;;4.00;;
819;SDS011;392;48.838;2.322;2023-03-20T12:56:04;4.10;;;3.70;;
819;SDS011;392;48.838;2.322;2023-03-20T12:58:46;5.10;;;3.90;;
819;SDS011;392;48.838;2.322;2023-03-20T13:01:21;3.80;;;3.50;;
819;SDS011;392;48.838;2.322;2023-03-20T13:04:11;4.43;;;3.80;;
819;SDS011;392;48.838;2.322;2023-03-20T13:07:11;4.20;;;3.90;;
819;SDS011;392;48.838;2.322;2023-03-20T13:09:47;5.20;;;4.67;;
819;SDS011;392;48.838;2.322;2023-03-20T13:12:39;4.07;;;3.77;;
819;SDS011;392;48.838;2.322;2023-03-20T13:15:21;5.57;;;4.50;;
819;SDS011;392;48.838;2.322;2023-03-20T13:17:59;4.67;;;4.20;;
819;SDS011;392;48.838;2.322;2023-03-20T13:20:33;4.23;;;3.83;;
819;SDS011;392;48.838;2.322;2023-03-20T13:23:10;4.47;;;3.57;;
819;SDS011;392;48.838;2.322;2023-03-20T13:25:51;6.30;;;4.30;;
819;SDS011;392;48.838;2.322;2023-03-20T13:28:45;4.13;;;3.73;;
819;SDS011;392;48.838;2.322;2023-03-20T13:31:24;4.00;;;3.70;;
819;SDS011;392;48.838;2.322;2023-03-20T13:34:06;5.50;;;4.17;;
819;SDS011;392;48.838;2.322;2023-03-20T13:36:50;5.27;;;3.90;;
819;SDS011;392;48.838;2.322;2023-03-20T13:39:32;6.50;;;4.07;;
819;SDS011;392;48.838;2.322;2023-03-20T13:42:02;6.40;;;4.60;;
819;SDS011;392;48.838;2.322;2023-03-20T13:44:37;9.60;;;4.33;;
819;SDS011;392;48.838;2.322;2023-03-20T13:47:09;5.13;;;4.60;;
819;SDS011;392;48.838;2.322;2023-03-20T13:49:41;4.93;;;4.53;;
819;SDS011;392;48.838;2.322;2023-03-20T13:52:20;5.97;;;5.37;;
819;SDS011;392;48.838;2.322;2023-03-20T13:54:55;5.00;;;4.50;;
819;SDS011;392;48.838;2.322;2023-03-20T13:57:43;5.30;;;4.20;;
819;SDS011;392;48.838;2.322;2023-03-20T14:00:26;5.43;;;4.57;;
819;SDS011;392;48.838;2.322;2023-03-20T14:03:04;5.03;;;4.50;;
819;SDS011;392;48.838;2.322;2023-03-20T14:05:41;4.37;;;3.97;;
819;SDS011;392;48.838;2.322;2023-03-20T14:08:22;5.63;;;4.30;;
819;SDS011;392;48.838;2.322;2023-03-20T14:11:11;4.90;;;4.50;;
819;SDS011;392;48.838;2.322;2023-03-20T14:13:58;5.27;;;3.87;;
819;SDS011;392;48.838;2.322;2023-03-20T14:16:33;5.03;;;4.20;;
819;SDS011;392;48.838;2.322;2023-03-20T14:19:04;4.10;;;3.80;;
819;SDS011;392;48.838;2.322;2023-03-20T14:21:34;4.27;;;3.87;;
819;SDS011;392;48.838;2.322;2023-03-20T14:24:04;4.30;;;4.00;;
819;SDS011;392;48.838;2.322;2023-03-20T14:26:34;4.50;;;4.10;;
819;SDS011;392;48.838;2.322;2023-03-20T14:32:03;9.13;;;5.87;;
819;SDS011;392;48.838;2.322;2023-03-20T14:40:48;6.07;;;3.93;;
819;SDS011;392;48.838;2.322;2023-03-20T14:43:31;9.80;;;4.97;;
819;SDS011;392;48.838;2.322;2023-03-20T14:46:24;6.87;;;4.77;;
819;SDS011;392;48.838;2.322;2023-03-20T14:48:58;5.00;;;4.43;;
819;SDS011;392;48.838;2.322;2023-03-20T14:51:45;5.67;;;4.07;;
819;SDS011;392;48.838;2.322;2023-03-20T14:54:23;6.90;;;4.73;;
819;SDS011;392;48.838;2.322;2023-03-20T14:56:55;4.80;;;4.27;;
819;SDS011;392;48.838;2.322;2023-03-20T14:59:35;5.40;;;4.00;;
819;SDS011;392;48.838;2.322;2023-03-20T15:02:02;4.40;;;4.00;;
819;SDS011;392;48.838;2.322;2023-03-20T15:04:31;5.40;;;3.83;;
819;SDS011;392;48.838;2.322;2023-03-20T15:07:04;4.33;;;3.70;;
819;SDS011;392;48.838;2.322;2023-03-20T15:09:40;3.50;;;3.30;;
819;SDS011;392;48.838;2.322;2023-03-20T15:12:12;5.37;;;3.80;;
819;SDS011;392;48.838;2.322;2023-03-20T15:14:43;5.43;;;4.80;;
819;SDS011;392;48.838;2.322;2023-03-20T15:17:18;5.80;;;3.90;;
819;SDS011;392;48.838;2.322;2023-03-20T15:19:48;8.13;;;4.23;;
819;SDS011;392;48.838;2.322;2023-03-20T15:22:17;4.87;;;3.90;;
819;SDS011;392;48.838;2.322;2023-03-20T15:24:52;6.20;;;4.87;;
819;SDS011;392;48.838;2.322;2023-03-20T15:27:23;5.43;;;3.53;;
819;SDS011;392;48.838;2.322;2023-03-20T15:29:55;5.27;;;4.07;;
819;SDS011;392;48.838;2.322;2023-03-20T15:32:23;5.23;;;4.60;;
819;SDS011;392;48.838;2.322;2023-03-20T15:34:50;5.53;;;4.00;;
819;SDS011;392;48.838;2.322;2023-03-20T15:37:19;7.47;;;4.73;;
819;SDS011;392;48.838;2.322;2023-03-20T15:39:50;4.30;;;3.90;;
819;SDS011;392;48.838;2.322;2023-03-20T15:42:22;5.83;;;4.90;;
819;SDS011;392;48.838;2.322;2023-03-20T15:44:52;6.77;;;3.77;;
819;SDS011;392;48.838;2.322;2023-03-20T15:47:22;7.17;;;4.10;;
819;SDS011;392;48.838;2.322;2023-03-20T15:49:51;5.50;;;4.07;;
819;SDS011;392;48.838;2.322;2023-03-20T15:52:22;5.07;;;4.10;;
819;SDS011;392;48.838;2.322;2023-03-20T15:54:55;8.70;;;4.13;;
819;SDS011;392;48.838;2.322;2023-03-20T15:57:28;5.83;;;4.30;;
819;SDS011;392;48.838;2.322;2023-03-20T16:00:00;10.90;;;9.70;;
819;SDS011;392;48.838;2.322;2023-03-20T16:02:32;6.77;;;3.93;;
819;SDS011;392;48.838;2.322;2023-03-20T16:05:02;4.90;;;3.70;;
819;SDS011;392;48.838;2.322;2023-03-20T16:07:31;7.07;;;4.80;;
819;SDS011;392;48.838;2.322;2023-03-20T16:09:59;7.50;;;4.20;;
819;SDS011;392;48.838;2.322;2023-03-20T16:12:28;6.03;;;4.07;;
819;SDS011;392;48.838;2.322;2023-03-20T16:14:56;7.83;;;3.93;;
819;SDS011;392;48.838;2.322;2023-03-20T16:17:25;5.90;;;3.50;;
819;SDS011;392;48.838;2.322;2023-03-20T16:19:52;7.07;;;6.03;;
819;SDS011;392;48.838;2.322;2023-03-20T16:22:21;4.13;;;3.50;;
819;SDS011;392;48.838;2.322;2023-03-20T16:24:52;7.80;;;4.27;;
819;SDS011;392;48.838;2.322;2023-03-20T16:27:23;6.13;;;4.20;;
819;SDS011;392;48.838;2.322;2023-03-20T16:29:55;6.07;;;4.60;;
819;SDS011;392;48.838;2.322;2023-03-20T16:32:26;5.90;;;3.97;;
819;SDS011;392;48.838;2.322;2023-03-20T16:35:01;6.13;;;4.10;;
819;SDS011;392;48.838;2.322;2023-03-20T16:37:35;6.87;;;4.80;;
819;SDS011;392;48.838;2.322;2023-03-20T16:40:18;8.93;;;4.73;;
819;SDS011;392;48.838;2.322;2023-03-20T16:42:50;6.80;;;4.43;;